Time;durP1;ratioP1;P1;durP2;ratioP2;P2;SDS_P1;SDS_P2;PMS_P1;PMS_P2;Temp;Humidity;BMP_temperature;BMP_pressure;BME280_temperature;BME280_humidity;BME280_pressure;Samples;Min_cycle;Max_cycle;Signal;HPM_P1;HPM_P2
2022/06/01 00:00:26;;;;;;;18.30;14.55;;;11.00;99.90;;;;;;6240037;28;20046;-60
2022/06/01 00:03:31;;;;;;;17.30;14.25;;;11.00;99.90;;;;;;6243862;28;20054;-60
2022/06/01 00:06:33;;;;;;;17.27;15.13;;;11.00;99.90;;;;;;6244127;28;20064;-61
2022/06/01 00:09:34;;;;;;;16.88;15.05;;;11.00;99.90;;;;;;6244335;28;20053;-60
2022/06/01 00:12:36;;;;;;;18.15;15.13;;;11.00;99.90;;;;;;6243646;28;20068;-58
2022/06/01 00:15:40;;;;;;;17.40;15.55;;;11.00;99.90;;;;;;6244684;28;20041;-61
2022/06/01 00:18:42;;;;;;;19.17;15.35;;;11.00;99.90;;;;;;6244865;28;20043;-61
2022/06/01 00:24:59;;;;;;;18.10;15.32;;;11.00;99.90;;;;;;6236748;28;20046;-61
2022/06/01 00:28:01;;;;;;;17.27;15.07;;;10.90;99.90;;;;;;6242568;28;20576;-58
2022/06/01 00:31:05;;;;;;;17.98;15.70;;;10.90;99.90;;;;;;6242473;28;20046;-58
2022/06/01 00:34:07;;;;;;;18.98;15.40;;;11.00;99.90;;;;;;6245283;28;20160;-61
2022/06/01 00:37:10;;;;;;;18.88;15.45;;;11.00;99.90;;;;;;6245117;28;20071;-60
2022/06/01 00:40:14;;;;;;;17.95;16.05;;;11.00;99.90;;;;;;6235449;28;20062;-60
2022/06/01 00:43:22;;;;;;;18.92;15.68;;;11.00;99.90;;;;;;6243456;28;20045;-58
2022/06/01 00:46:25;;;;;;;17.50;15.68;;;11.10;99.90;;;;;;6245147;28;20051;-60
2022/06/01 00:49:27;;;;;;;18.48;15.95;;;11.10;99.90;;;;;;6243220;28;20492;-58
2022/06/01 00:52:36;;;;;;;19.52;17.42;;;11.10;99.90;;;;;;6242778;28;20058;-60
2022/06/01 00:55:43;;;;;;;19.92;17.83;;;11.10;99.90;;;;;;6240223;28;20037;-61
2022/06/01 00:58:48;;;;;;;21.23;17.05;;;11.10;99.90;;;;;;6241087;28;20494;-58
2022/06/01 01:01:55;;;;;;;18.75;16.75;;;11.00;99.90;;;;;;6243237;28;20049;-60
2022/06/01 01:04:57;;;;;;;19.50;17.33;;;11.10;99.90;;;;;;6242524;28;20041;-60
2022/06/01 01:08:05;;;;;;;21.10;17.58;;;11.10;99.90;;;;;;6259772;28;20051;-61
2022/06/01 01:11:07;;;;;;;17.98;16.17;;;11.00;99.90;;;;;;6240908;28;20049;-60
2022/06/01 01:14:09;;;;;;;20.35;17.65;;;11.10;99.90;;;;;;6240218;28;20064;-58
2022/06/01 01:17:13;;;;;;;20.80;17.52;;;11.10;99.90;;;;;;6243139;28;20072;-58
2022/06/01 01:20:16;;;;;;;21.83;17.90;;;11.20;99.90;;;;;;6241428;28;20041;-60
2022/06/01 01:23:27;;;;;;;21.15;17.90;;;11.10;99.90;;;;;;6242141;28;20057;-61
2022/06/01 01:26:32;;;;;;;22.58;19.48;;;11.10;99.90;;;;;;6239683;28;20053;-60
2022/06/01 01:29:37;;;;;;;20.55;18.35;;;11.10;99.90;;;;;;6242892;28;20045;-60
2022/06/01 01:32:39;;;;;;;21.63;19.35;;;11.10;99.90;;;;;;6242103;28;20478;-61
2022/06/01 01:35:42;;;;;;;21.73;18.98;;;11.00;99.90;;;;;;6238756;28;20037;-61
2022/06/01 01:38:49;;;;;;;22.92;19.08;;;11.00;99.90;;;;;;6240294;28;20572;-60
2022/06/01 01:41:54;;;;;;;22.83;20.27;;;11.10;99.90;;;;;;6238431;28;20065;-61
2022/06/01 01:45:02;;;;;;;22.70;18.70;;;11.10;99.90;;;;;;6238881;28;20513;-60
2022/06/01 01:48:04;;;;;;;22.23;18.63;;;11.10;99.90;;;;;;6241146;28;20433;-61
2022/06/01 01:51:07;;;;;;;21.27;19.13;;;11.20;99.90;;;;;;6236313;28;20049;-60
2022/06/01 01:54:23;;;;;;;22.85;20.42;;;11.20;99.90;;;;;;6239157;28;20492;-60
2022/06/01 01:57:42;;;;;;;22.05;19.73;;;11.20;99.90;;;;;;6235572;28;20050;-60
2022/06/01 02:00:49;;;;;;;23.05;20.08;;;11.20;99.90;;;;;;6243009;28;20037;-60
2022/06/01 02:03:56;;;;;;;24.67;20.50;;;11.20;99.90;;;;;;6240860;28;20068;-60
2022/06/01 02:07:00;;;;;;;22.50;19.42;;;11.10;99.90;;;;;;6243763;28;20088;-61
2022/06/01 02:13:25;;;;;;;22.67;19.83;;;11.10;99.90;;;;;;6246931;28;20049;-61
2022/06/01 02:16:32;;;;;;;25.92;21.40;;;11.10;99.90;;;;;;6247462;28;20041;-58
2022/06/01 02:19:37;;;;;;;22.77;20.33;;;11.10;99.90;;;;;;6240178;28;20045;-60
2022/06/01 02:22:42;;;;;;;21.73;19.45;;;11.10;99.90;;;;;;6244339;28;20059;-61
2022/06/01 02:25:47;;;;;;;22.85;19.58;;;11.10;99.90;;;;;;6247336;28;20049;-61
2022/06/01 02:28:54;;;;;;;21.77;19.48;;;11.10;99.90;;;;;;6245164;28;20046;-60
2022/06/01 02:31:57;;;;;;;23.00;20.50;;;11.10;99.90;;;;;;6249150;28;20052;-58
2022/06/01 02:35:02;;;;;;;23.98;21.27;;;11.10;99.90;;;;;;6242512;28;20049;-59
2022/06/01 02:38:10;;;;;;;23.23;20.77;;;11.10;99.90;;;;;;6244291;28;20046;-61
2022/06/01 02:44:29;;;;;;;24.73;21.77;;;10.90;99.90;;;;;;6246413;28;20482;-61
2022/06/01 02:47:34;;;;;;;25.23;21.58;;;10.90;99.90;;;;;;6246680;28;20053;-60
2022/06/01 02:50:37;;;;;;;25.25;22.27;;;10.90;99.90;;;;;;6247928;28;20425;-61
2022/06/01 02:53:39;;;;;;;26.52;22.25;;;10.90;99.90;;;;;;6240295;28;20136;-60
2022/06/01 02:56:41;;;;;;;25.35;22.50;;;10.80;99.90;;;;;;6243058;28;20052;-61
2022/06/01 02:59:45;;;;;;;26.75;23.00;;;10.80;99.90;;;;;;6247252;28;20474;-61
2022/06/01 03:02:50;;;;;;;25.92;21.38;;;10.80;99.90;;;;;;6246434;28;20060;-61
2022/06/01 03:05:52;;;;;;;26.67;22.25;;;10.90;99.90;;;;;;6247706;28;20072;-61
2022/06/01 03:08:54;;;;;;;15.93;14.15;;;10.90;99.90;;;;;;6246842;28;20417;-61
2022/06/01 03:11:56;;;;;;;20.25;18.15;;;10.90;99.90;;;;;;6241678;28;20054;-61
2022/06/01 03:14:59;;;;;;;20.83;17.83;;;10.90;99.90;;;;;;6246023;28;20525;-61
2022/06/01 03:18:01;;;;;;;21.98;19.33;;;10.90;99.90;;;;;;6247669;28;20087;-58
2022/06/01 03:21:03;;;;;;;22.92;20.13;;;10.90;99.90;;;;;;6243663;28;20046;-58
2022/06/01 03:24:06;;;;;;;23.30;20.08;;;10.90;99.90;;;;;;6245864;28;20050;-60
2022/06/01 03:27:08;;;;;;;20.25;17.98;;;10.90;99.90;;;;;;6246316;28;20037;-61
2022/06/01 03:30:16;;;;;;;24.42;21.77;;;10.90;99.90;;;;;;6240201;28;20056;-61
2022/06/01 03:33:18;;;;;;;24.63;22.08;;;10.90;99.90;;;;;;6243531;28;20095;-61
2022/06/01 03:36:20;;;;;;;21.60;18.15;;;10.90;99.90;;;;;;6246271;28;20052;-61
2022/06/01 03:39:22;;;;;;;25.35;22.45;;;10.90;99.90;;;;;;6243124;28;20044;-60
2022/06/01 03:42:24;;;;;;;25.50;22.75;;;10.90;99.90;;;;;;6245058;28;20049;-60
2022/06/01 03:48:48;;;;;;;26.10;22.15;;;11.00;99.90;;;;;;6240386;28;20046;-59
2022/06/01 03:51:50;;;;;;;25.60;22.95;;;11.00;99.90;;;;;;6245700;28;20117;-59
2022/06/01 03:54:52;;;;;;;26.70;22.95;;;11.00;99.90;;;;;;6245165;28;20128;-59
2022/06/01 03:57:54;;;;;;;27.15;24.23;;;11.00;99.90;;;;;;6243250;28;20052;-59
2022/06/01 04:00:57;;;;;;;27.60;23.95;;;11.10;99.90;;;;;;6245250;28;20053;-59
2022/06/01 04:03:59;;;;;;;26.67;23.70;;;11.10;99.90;;;;;;6230762;28;20045;-59
2022/06/01 04:07:01;;;;;;;26.42;23.33;;;11.10;99.90;;;;;;6244749;28;20049;-59
2022/06/01 04:10:04;;;;;;;26.63;23.48;;;11.20;99.90;;;;;;6244436;28;20046;-59
2022/06/01 04:13:06;;;;;;;27.88;23.38;;;11.30;99.90;;;;;;6236071;28;20042;-59
2022/06/01 04:16:10;;;;;;;26.45;23.65;;;11.20;99.90;;;;;;6245001;28;20478;-59
2022/06/01 04:19:11;;;;;;;26.27;23.45;;;11.20;99.90;;;;;;6245908;28;20045;-59
2022/06/01 04:22:15;;;;;;;24.10;21.25;;;11.20;99.90;;;;;;6244228;28;20394;-59
2022/06/01 04:25:19;;;;;;;27.05;24.17;;;11.20;99.90;;;;;;6240154;28;20057;-60
2022/06/01 04:28:21;;;;;;;26.35;23.52;;;11.20;99.90;;;;;;6243515;28;20049;-60
2022/06/01 04:31:25;;;;;;;27.23;24.15;;;11.20;99.90;;;;;;6244612;28;20408;-60
2022/06/01 04:34:27;;;;;;;25.40;22.42;;;11.30;99.90;;;;;;6241457;28;20057;-59
2022/06/01 04:37:29;;;;;;;26.83;23.90;;;11.20;99.90;;;;;;6237223;28;20042;-59
2022/06/01 04:40:31;;;;;;;26.50;23.67;;;11.30;99.90;;;;;;6243485;28;20064;-59
2022/06/01 04:43:33;;;;;;;22.95;19.40;;;11.30;99.90;;;;;;6241734;28;20089;-59
2022/06/01 04:46:37;;;;;;;29.42;24.17;;;11.30;99.90;;;;;;6243850;28;20052;-59
2022/06/01 04:49:39;;;;;;;27.90;24.02;;;11.30;99.90;;;;;;6240513;28;20132;-59
2022/06/01 04:52:41;;;;;;;27.67;23.77;;;11.30;99.90;;;;;;6242522;28;20060;-59
2022/06/01 04:55:44;;;;;;;28.20;24.08;;;11.40;99.90;;;;;;6241533;28;20052;-59
2022/06/01 04:58:46;;;;;;;26.98;23.50;;;11.40;99.90;;;;;;6238250;28;20052;-59
2022/06/01 05:01:50;;;;;;;29.75;24.23;;;11.50;99.90;;;;;;6241202;28;20060;-58
2022/06/01 05:04:52;;;;;;;27.95;25.15;;;11.50;99.90;;;;;;6244765;28;20052;-60
2022/06/01 05:07:54;;;;;;;445.80;43.65;;;11.50;99.90;;;;;;6240148;28;20073;-60
2022/06/01 05:10:56;;;;;;;29.13;25.10;;;11.60;99.90;;;;;;6241233;28;20046;-60
2022/06/01 05:13:58;;;;;;;27.05;24.15;;;11.60;99.90;;;;;;6239164;28;20049;-60
2022/06/01 05:17:02;;;;;;;25.80;23.13;;;11.70;99.90;;;;;;6243078;28;20056;-60
2022/06/01 05:20:05;;;;;;;27.02;24.13;;;11.70;99.90;;;;;;6226418;28;20064;-60
2022/06/01 05:23:07;;;;;;;25.92;23.08;;;11.80;99.90;;;;;;6242491;28;20052;-60
2022/06/01 05:26:09;;;;;;;28.15;24.80;;;11.90;99.90;;;;;;6244919;28;20042;-60
2022/06/01 05:29:11;;;;;;;25.85;23.02;;;12.00;99.90;;;;;;6234320;28;20046;-60
2022/06/01 05:32:14;;;;;;;27.02;24.23;;;12.10;99.90;;;;;;6242427;28;20041;-60
2022/06/01 05:35:16;;;;;;;26.33;22.98;;;12.10;99.90;;;;;;6240895;28;20049;-60
2022/06/01 05:38:19;;;;;;;21.08;18.88;;;12.20;99.90;;;;;;6240490;28;20414;-60
2022/06/01 05:41:20;;;;;;;24.67;20.98;;;12.40;99.90;;;;;;6241645;28;20056;-60
2022/06/01 05:44:22;;;;;;;24.13;21.63;;;12.40;99.90;;;;;;6241511;28;20238;-60
2022/06/01 05:47:26;;;;;;;19.40;17.30;;;12.50;99.90;;;;;;6241689;28;20052;-60
2022/06/01 05:50:28;;;;;;;24.88;21.50;;;12.50;99.90;;;;;;6225871;28;20395;-60
2022/06/01 05:53:30;;;;;;;24.77;22.08;;;12.50;99.90;;;;;;6240810;28;20053;-59
2022/06/01 05:56:32;;;;;;;11.98;9.70;;;12.60;99.90;;;;;;6239011;28;20049;-60
2022/06/01 05:59:33;;;;;;;24.58;22.00;;;12.70;99.90;;;;;;6243193;28;20050;-59
2022/06/01 06:02:37;;;;;;;26.00;22.27;;;12.80;99.90;;;;;;6241846;28;20058;-60
2022/06/01 06:09:00;;;;;;;22.70;15.60;;;13.00;99.90;;;;;;6230472;28;20046;-60
2022/06/01 06:12:02;;;;;;;11.15;8.40;;;13.20;99.90;;;;;;6241767;28;20188;-60
2022/06/01 06:15:05;;;;;;;21.70;19.27;;;13.50;99.90;;;;;;6242738;28;20057;-59
2022/06/01 06:18:08;;;;;;;23.98;19.77;;;13.80;99.90;;;;;;6236555;28;20128;-62
2022/06/01 06:21:10;;;;;;;20.98;18.77;;;14.00;99.90;;;;;;6229475;28;20054;-61
2022/06/01 06:24:13;;;;;;;31.25;20.98;;;14.00;99.90;;;;;;6239160;28;20053;-61
2022/06/01 06:27:15;;;;;;;;;;;14.00;99.90;;;;;;6244226;28;20057;-60
2022/06/01 06:30:18;;;;;;;23.80;20.73;;;13.90;99.90;;;;;;6232571;28;20500;-60
2022/06/01 06:33:21;;;;;;;23.33;18.97;;;14.00;99.90;;;;;;6228729;28;20038;-61
2022/06/01 06:36:23;;;;;;;25.30;21.15;;;14.10;99.90;;;;;;6235441;28;20042;-61
2022/06/01 06:39:25;;;;;;;33.90;24.45;;;14.10;99.90;;;;;;6226803;28;23585;-60
2022/06/01 06:42:27;;;;;;;26.85;20.00;;;14.20;99.90;;;;;;6236308;28;20046;-60
2022/06/01 06:45:29;;;;;;;27.48;20.05;;;14.20;99.90;;;;;;6231658;28;20053;-60
2022/06/01 06:48:32;;;;;;;27.65;21.20;;;14.10;99.90;;;;;;6239241;28;20052;-60
2022/06/01 06:51:34;;;;;;;;;;;14.10;99.90;;;;;;6233526;28;20053;-60
2022/06/01 06:54:36;;;;;;;35.70;28.42;;;14.20;99.90;;;;;;6236301;28;19963;-59
2022/06/01 06:57:38;;;;;;;35.95;29.75;;;14.20;99.90;;;;;;6231685;28;20045;-60
2022/06/01 07:00:40;;;;;;;27.38;24.38;;;14.30;99.90;;;;;;6232303;28;20049;-60
2022/06/01 07:03:43;;;;;;;22.67;19.10;;;14.50;99.90;;;;;;6230722;28;20045;-60
2022/06/01 07:06:45;;;;;;;25.15;21.73;;;14.50;99.90;;;;;;6234181;28;20045;-60
2022/06/01 07:09:47;;;;;;;35.75;28.05;;;14.40;99.90;;;;;;6234842;28;20061;-60
2022/06/01 07:12:49;;;;;;;28.23;23.13;;;14.30;99.90;;;;;;6228269;28;20057;-61
2022/06/01 07:16:01;;;;;;;26.02;20.70;;;14.30;99.90;;;;;;6235338;28;20045;-60
2022/06/01 07:19:06;;;;;;;27.25;21.85;;;14.20;99.90;;;;;;6230050;28;20049;-60
2022/06/01 07:22:08;;;;;;;39.33;31.17;;;14.10;99.90;;;;;;6233443;28;20046;-61
2022/06/01 07:25:11;;;;;;;32.22;25.80;;;14.10;99.90;;;;;;6241454;28;20058;-61
2022/06/01 07:28:13;;;;;;;31.45;28.08;;;14.20;99.90;;;;;;6240663;28;20121;-61
2022/06/01 07:31:17;;;;;;;31.48;26.17;;;14.20;99.90;;;;;;6242742;28;20042;-61
2022/06/01 07:34:20;;;;;;;29.92;25.70;;;14.10;99.90;;;;;;6243439;28;20057;-61
2022/06/01 07:44:01;;;;;;;38.85;33.80;;;14.20;99.90;;;;;;6242702;28;20050;-61
2022/06/01 07:47:03;;;;;;;44.85;38.67;;;14.20;99.90;;;;;;6244168;28;20041;-61
2022/06/01 07:50:08;;;;;;;44.63;35.92;;;14.10;99.90;;;;;;6243857;28;20076;-61
2022/06/01 07:53:11;;;;;;;38.88;31.83;;;14.00;99.90;;;;;;6240260;28;20509;-61
2022/06/01 07:56:13;;;;;;;38.00;30.27;;;14.10;99.90;;;;;;6236481;28;20049;-61
2022/06/01 07:59:15;;;;;;;32.20;26.10;;;14.20;99.90;;;;;;6239193;28;20120;-61
2022/06/01 08:02:17;;;;;;;25.98;20.08;;;14.40;99.90;;;;;;6233935;28;20058;-61
2022/06/01 08:05:22;;;;;;;20.48;17.38;;;14.50;99.90;;;;;;6240910;28;20049;-61
2022/06/01 08:08:24;;;;;;;13.75;12.32;;;14.40;99.90;;;;;;6241841;28;20135;-61
2022/06/01 08:14:42;;;;;;;12.45;11.15;;;14.40;99.90;;;;;;6233642;28;20478;-61
2022/06/01 08:17:46;;;;;;;12.30;10.18;;;14.50;99.90;;;;;;6230727;28;24413;-61
2022/06/01 08:20:50;;;;;;;11.52;9.40;;;14.70;99.90;;;;;;6240406;28;20061;-61
2022/06/01 08:23:52;;;;;;;11.00;9.00;;;14.80;99.90;;;;;;6241524;28;20053;-61
2022/06/01 08:26:54;;;;;;;9.57;8.13;;;15.00;99.90;;;;;;6240528;28;20049;-61
2022/06/01 08:29:56;;;;;;;7.90;7.05;;;15.20;99.90;;;;;;6237698;28;20053;-61
2022/06/01 08:32:59;;;;;;;11.68;9.02;;;15.30;99.90;;;;;;6235527;28;20051;-61
2022/06/01 08:36:02;;;;;;;8.93;7.93;;;15.40;99.90;;;;;;6232372;28;20589;-61
2022/06/01 08:39:05;;;;;;;8.60;7.82;;;15.50;99.90;;;;;;6241078;28;20065;-61
2022/06/01 08:42:09;;;;;;;10.05;9.05;;;15.70;99.90;;;;;;6240085;28;20498;-61
2022/06/01 08:45:14;;;;;;;7.63;6.78;;;15.70;99.90;;;;;;6234750;28;20172;-61
2022/06/01 08:48:20;;;;;;;9.40;7.40;;;15.90;99.90;;;;;;6232266;28;20050;-61
2022/06/01 08:51:26;;;;;;;7.30;6.03;;;16.20;99.90;;;;;;6237638;28;20494;-61
2022/06/01 08:54:29;;;;;;;9.70;7.80;;;16.40;99.90;;;;;;6241733;28;20044;-61
2022/06/01 08:57:40;;;;;;;6.75;4.88;;;16.60;99.90;;;;;;6244520;28;20045;-61
2022/06/01 09:00:48;;;;;;;7.93;6.65;;;16.70;99.90;;;;;;6242473;28;20052;-61
2022/06/01 09:04:00;;;;;;;9.73;6.90;;;17.00;99.90;;;;;;6244688;28;20489;-61
2022/06/01 09:07:19;;;;;;;6.85;5.70;;;17.30;99.90;;;;;;6241105;28;20052;-61
2022/06/01 09:10:49;;;;;;;8.05;6.05;;;17.50;99.90;;;;;;6241639;28;20057;-61
2022/06/01 09:13:58;;;;;;;6.05;4.63;;;17.70;99.90;;;;;;6228811;28;20046;-60
2022/06/01 09:17:02;;;;;;;6.60;5.93;;;17.80;99.90;;;;;;6240176;28;20505;-60
2022/06/01 09:23:26;;;;;;;9.98;6.63;;;17.70;99.90;;;;;;6240418;28;20483;-60
2022/06/01 09:26:30;;;;;;;8.45;5.65;;;17.70;99.90;;;;;;6238065;28;20041;-60
2022/06/01 09:29:35;;;;;;;3.63;3.33;;;17.70;99.90;;;;;;6234601;28;20692;-61
2022/06/01 09:32:40;;;;;;;5.32;4.00;;;17.70;99.90;;;;;;6231790;28;20045;-61
2022/06/01 09:35:47;;;;;;;4.25;3.50;;;17.80;99.90;;;;;;6233334;28;20059;-61
2022/06/01 09:38:53;;;;;;;4.65;3.78;;;17.70;99.90;;;;;;6232755;28;20037;-61
2022/06/01 09:42:12;;;;;;;6.30;5.70;;;17.70;99.90;;;;;;6239588;28;20046;-61
2022/06/01 09:45:24;;;;;;;4.40;3.65;;;17.80;99.90;;;;;;6237820;28;20425;-61
2022/06/01 09:48:30;;;;;;;6.00;4.07;;;17.80;99.90;;;;;;6241276;28;20060;-61
2022/06/01 09:51:35;;;;;;;10.38;7.38;;;17.80;99.90;;;;;;6239426;28;20559;-62
2022/06/01 09:54:44;;;;;;;5.93;5.20;;;17.60;99.90;;;;;;6242094;28;20128;-61
2022/06/01 09:58:00;;;;;;;4.57;4.07;;;17.40;99.90;;;;;;6240785;28;20049;-61
2022/06/01 10:07:42;;;;;;;5.35;4.00;;;17.20;99.90;;;;;;6232087;28;20050;-62
2022/06/01 10:10:58;;;;;;;4.28;3.05;;;17.10;99.90;;;;;;6238335;28;20045;-61
2022/06/01 10:14:30;;;;;;;2.90;2.30;;;17.10;99.90;;;;;;6229995;28;20077;-61
2022/06/01 10:17:35;;;;;;;3.63;2.10;;;17.10;99.90;;;;;;6216030;28;20049;-61
2022/06/01 10:20:41;;;;;;;5.10;2.65;;;17.20;99.90;;;;;;6240027;28;20508;-61
2022/06/01 10:23:47;;;;;;;3.17;1.77;;;17.50;99.90;;;;;;6239380;28;20049;-61
2022/06/01 10:26:55;;;;;;;6.75;2.17;;;17.60;99.90;;;;;;6236595;28;20050;-61
2022/06/01 10:30:07;;;;;;;4.70;1.90;;;17.60;99.90;;;;;;6236407;28;20517;-61
2022/06/01 10:33:15;;;;;;;2.42;1.73;;;17.60;99.90;;;;;;6234697;28;20049;-61
2022/06/01 10:36:21;;;;;;;2.15;1.60;;;17.60;99.90;;;;;;6239337;28;20477;-61
2022/06/01 10:39:35;;;;;;;1.63;1.52;;;17.70;99.90;;;;;;6241207;28;20045;-61
2022/06/01 10:46:10;;;;;;;4.22;1.42;;;18.10;99.90;;;;;;6245524;28;20482;-60
2022/06/01 10:49:26;;;;;;;3.03;1.77;;;18.30;99.90;;;;;;6244321;28;20050;-60
2022/06/01 10:52:33;;;;;;;1.95;1.73;;;18.60;99.90;;;;;;6245098;28;20450;-60
2022/06/01 10:55:39;;;;;;;1.83;1.00;;;18.80;99.90;;;;;;6243047;28;20048;-61
2022/06/01 10:58:43;;;;;;;1.83;1.30;;;19.00;99.90;;;;;;6240706;28;20528;-60
2022/06/01 11:01:59;;;;;;;1.33;1.00;;;19.20;99.90;;;;;;6243181;28;20433;-60
2022/06/01 11:05:13;;;;;;;2.45;1.20;;;19.40;99.90;;;;;;6243604;28;20049;-60
2022/06/01 11:08:30;;;;;;;1.45;1.35;;;19.60;99.90;;;;;;6239056;28;20053;-60
2022/06/01 11:11:43;;;;;;;2.28;0.95;;;19.60;98.30;;;;;;6240163;28;20049;-60
2022/06/01 11:15:02;;;;;;;1.55;1.40;;;19.50;99.90;;;;;;6246414;28;20046;-60
2022/06/01 11:18:27;;;;;;;1.50;1.27;;;19.30;99.90;;;;;;6237058;28;20051;-61
2022/06/01 11:21:40;;;;;;;3.83;1.80;;;19.20;99.20;;;;;;6238020;28;20045;-61
2022/06/01 11:25:00;;;;;;;2.95;1.88;;;18.90;99.70;;;;;;6236555;28;20045;-60
2022/06/01 11:28:19;;;;;;;3.00;1.70;;;18.60;98.30;;;;;;6243047;28;20037;-60
2022/06/01 11:31:24;;;;;;;2.05;1.08;;;18.40;98.40;;;;;;6246440;28;20052;-60
2022/06/01 11:34:42;;;;;;;4.00;2.40;;;18.30;99.90;;;;;;6238820;28;20053;-60
2022/06/01 11:37:50;;;;;;;2.95;1.75;;;18.30;99.90;;;;;;6245814;28;20050;-60
2022/06/01 11:40:57;;;;;;;2.08;1.85;;;18.10;99.90;;;;;;6244807;28;21897;-60
2022/06/01 11:44:03;;;;;;;1.67;0.98;;;18.20;99.90;;;;;;6240250;28;20065;-61
2022/06/01 11:47:13;;;;;;;1.40;1.02;;;18.50;99.90;;;;;;6235776;28;20053;-61
2022/06/01 11:50:25;;;;;;;1.70;1.20;;;18.90;99.90;;;;;;6237345;28;20045;-60
2022/06/01 11:53:34;;;;;;;0.80;0.77;;;19.10;99.90;;;;;;6241875;28;20119;-60
2022/06/01 11:56:43;;;;;;;1.77;1.60;;;19.30;99.90;;;;;;6236072;28;20056;-61
2022/06/01 11:59:48;;;;;;;4.00;1.30;;;19.30;99.90;;;;;;6238164;28;20490;-60
2022/06/01 12:02:51;;;;;;;2.78;0.95;;;19.40;99.90;;;;;;6240095;28;20437;-60
2022/06/01 12:06:01;;;;;;;1.40;1.20;;;19.20;99.90;;;;;;6240639;28;20144;-60
2022/06/01 12:09:04;;;;;;;1.38;0.85;;;18.80;99.90;;;;;;6238557;28;20064;-60
2022/06/01 12:12:22;;;;;;;2.75;1.88;;;18.60;99.90;;;;;;6240318;28;20777;-60
2022/06/01 12:15:32;;;;;;;1.50;1.02;;;18.50;99.90;;;;;;6241969;28;20056;-60
2022/06/01 12:18:36;;;;;;;1.40;1.23;;;18.40;99.90;;;;;;6239139;28;20057;-59
2022/06/01 12:21:57;;;;;;;1.00;1.00;;;18.00;99.90;;;;;;6243340;28;20050;-60
2022/06/01 12:28:35;;;;;;;9.73;4.07;;;17.70;99.90;;;;;;6235734;28;20119;-60
2022/06/01 12:31:39;;;;;;;6.07;2.67;;;17.40;99.90;;;;;;6243943;28;20084;-60
2022/06/01 12:35:03;;;;;;;7.25;3.20;;;16.70;99.90;;;;;;6236733;28;20057;-60
2022/06/01 12:38:08;;;;;;;;;;;15.80;99.90;;;;;;6242155;28;20976;-60
2022/06/01 12:41:14;;;;;;;;;;;14.80;99.90;;;;;;6240209;28;19936;-60
2022/06/01 12:44:17;;;;;;;8.40;4.28;;;14.10;99.90;;;;;;6241498;28;19928;-60
2022/06/01 12:47:24;;;;;;;7.70;3.80;;;13.50;99.90;;;;;;6240993;28;20048;-60
2022/06/01 12:50:29;;;;;;;5.40;3.70;;;13.00;99.90;;;;;;6237934;28;20493;-59
2022/06/01 12:53:42;;;;;;;7.28;4.32;;;12.80;99.90;;;;;;6241745;28;20056;-60
2022/06/01 12:56:48;;;;;;;4.88;4.38;;;12.60;99.90;;;;;;6241630;28;20064;-60
2022/06/01 12:59:57;;;;;;;7.75;4.35;;;12.60;99.90;;;;;;6239319;28;20049;-60
2022/06/01 13:02:59;;;;;;;11.23;5.20;;;12.70;99.90;;;;;;6239229;28;20045;-60
2022/06/01 13:06:10;;;;;;;6.32;4.47;;;12.90;99.90;;;;;;6232606;28;20045;-60
2022/06/01 13:09:12;;;;;;;5.00;4.50;;;13.10;99.90;;;;;;6243049;28;20046;-60
2022/06/01 13:12:17;;;;;;;4.17;3.77;;;13.30;99.90;;;;;;6236152;28;20158;-60
2022/06/01 13:15:28;;;;;;;4.90;4.40;;;13.40;99.90;;;;;;6241662;28;20108;-60
2022/06/01 13:18:35;;;;;;;4.38;3.60;;;13.60;99.90;;;;;;6240251;28;20082;-60
2022/06/01 13:21:38;;;;;;;3.65;2.97;;;13.90;99.90;;;;;;6242424;28;20048;-60
2022/06/01 13:24:45;;;;;;;3.60;3.30;;;14.20;99.90;;;;;;6234230;28;20046;-60
2022/06/01 13:27:48;;;;;;;4.20;3.70;;;14.50;99.90;;;;;;6244228;28;20037;-60
2022/06/01 13:30:50;;;;;;;3.58;3.28;;;14.80;99.90;;;;;;6241516;28;20045;-60
2022/06/01 13:33:52;;;;;;;3.72;3.42;;;15.10;99.90;;;;;;6244241;28;20119;-60
2022/06/01 13:37:06;;;;;;;3.90;3.60;;;15.40;99.90;;;;;;6241931;28;20056;-62
2022/06/01 13:40:20;;;;;;;3.78;3.47;;;15.40;99.90;;;;;;6242041;28;20061;-60
2022/06/01 13:43:22;;;;;;;5.53;4.82;;;15.20;99.90;;;;;;6243206;28;20056;-60
2022/06/01 13:46:31;;;;;;;4.80;4.30;;;14.90;99.90;;;;;;6241853;28;20053;-60
2022/06/01 13:49:34;;;;;;;6.45;5.75;;;14.70;99.90;;;;;;6241174;28;20041;-58
2022/06/01 13:52:39;;;;;;;8.63;6.75;;;14.40;99.90;;;;;;6240535;28;20049;-59
2022/06/01 13:56:03;;;;;;;9.48;8.23;;;14.10;99.90;;;;;;6242798;28;20046;-60
2022/06/01 13:59:11;;;;;;;9.13;8.23;;;13.60;99.90;;;;;;6240694;28;20063;-60
2022/06/01 14:02:15;;;;;;;8.27;7.47;;;13.20;99.90;;;;;;6236997;28;20053;-60
2022/06/01 14:05:20;;;;;;;11.43;10.15;;;12.90;99.90;;;;;;6236339;28;20048;-60
2022/06/01 14:08:32;;;;;;;10.38;8.55;;;12.80;99.90;;;;;;6242057;28;20450;-60
2022/06/01 14:11:34;;;;;;;10.00;9.10;;;12.80;99.90;;;;;;6247051;28;20049;-60
2022/06/01 14:14:39;;;;;;;12.20;9.40;;;12.80;99.90;;;;;;6245939;28;22322;-60
2022/06/01 14:17:43;;;;;;;10.18;9.18;;;12.90;99.90;;;;;;6244976;28;20049;-60
2022/06/01 14:20:45;;;;;;;9.52;8.63;;;13.00;99.90;;;;;;6247382;28;20041;-60
2022/06/01 14:23:49;;;;;;;6.45;5.63;;;13.20;99.90;;;;;;6243946;28;20052;-59
2022/06/01 14:30:12;;;;;;;10.95;9.75;;;13.50;99.90;;;;;;6246845;28;19920;-60
2022/06/01 14:33:14;;;;;;;3.55;3.25;;;13.70;99.90;;;;;;6244762;28;20045;-60
2022/06/01 14:36:16;;;;;;;7.28;6.60;;;13.90;99.90;;;;;;6247302;28;20071;-60
2022/06/01 14:39:21;;;;;;;6.68;6.00;;;14.00;99.90;;;;;;6246357;28;20081;-59
2022/06/01 14:42:23;;;;;;;7.25;5.65;;;14.00;99.90;;;;;;6246881;28;20131;-60
2022/06/01 14:45:25;;;;;;;9.65;4.88;;;13.90;99.90;;;;;;6243669;28;20064;-60
2022/06/01 14:48:27;;;;;;;6.90;5.38;;;13.70;99.90;;;;;;6239365;28;20049;-60
2022/06/01 14:51:33;;;;;;;6.68;5.72;;;13.40;99.90;;;;;;6246223;28;20057;-60
2022/06/01 14:54:39;;;;;;;7.68;5.95;;;13.30;99.90;;;;;;6247248;28;20050;-60
2022/06/01 14:57:41;;;;;;;5.72;5.22;;;13.40;99.90;;;;;;6250724;28;20493;-60
2022/06/01 15:00:43;;;;;;;6.68;6.07;;;13.70;99.90;;;;;;6246534;28;20050;-60
2022/06/01 15:03:47;;;;;;;4.83;4.33;;;13.90;99.90;;;;;;6239708;28;20049;-60
2022/06/01 15:06:50;;;;;;;5.78;5.18;;;13.90;99.90;;;;;;6244102;28;21491;-60
2022/06/01 15:09:54;;;;;;;5.30;4.82;;;14.00;99.90;;;;;;6247647;28;20057;-60
2022/06/01 15:12:56;;;;;;;5.40;4.93;;;14.00;99.90;;;;;;6245991;28;20049;-60
2022/06/01 15:15:58;;;;;;;5.47;4.97;;;14.10;99.90;;;;;;6243636;28;20057;-60
2022/06/01 15:19:01;;;;;;;4.53;4.10;;;14.20;99.90;;;;;;6245223;28;20056;-61
2022/06/01 15:22:03;;;;;;;4.60;4.22;;;14.20;99.90;;;;;;6246955;28;20048;-60
2022/06/01 15:25:09;;;;;;;2.63;2.42;;;14.40;99.90;;;;;;6245082;28;20052;-60
2022/06/01 15:28:12;;;;;;;3.28;2.97;;;14.50;99.90;;;;;;6243481;28;20056;-60
2022/06/01 15:41:15;;;;;;;6.22;5.63;;;14.70;99.90;;;;;;6240263;28;20090;-60
2022/06/01 15:44:16;;;;;;;6.63;6.00;;;14.60;99.90;;;;;;6244999;28;20049;-59
2022/06/01 15:47:21;;;;;;;6.65;5.63;;;14.40;99.90;;;;;;6247219;28;20049;-59
2022/06/01 15:50:24;;;;;;;7.55;6.13;;;14.20;99.90;;;;;;6245326;28;20513;-59
2022/06/01 15:53:26;;;;;;;6.43;5.70;;;14.00;99.90;;;;;;6246171;28;20050;-59
2022/06/01 15:56:31;;;;;;;7.57;6.88;;;14.00;99.90;;;;;;6244534;28;20076;-59
2022/06/01 15:59:33;;;;;;;7.68;6.88;;;13.90;99.90;;;;;;6241001;28;20053;-59
2022/06/01 16:02:36;;;;;;;6.90;6.30;;;13.90;99.90;;;;;;6243905;28;20045;-59
2022/06/01 16:05:38;;;;;;;6.75;6.05;;;13.90;99.90;;;;;;6245922;28;20050;-59
2022/06/01 16:08:42;;;;;;;7.57;6.77;;;13.90;99.90;;;;;;6246007;28;20126;-59
2022/06/01 16:11:45;;;;;;;;;;;14.10;99.90;;;;;;6246059;28;20183;-59
2022/06/01 16:14:47;;;;;;;5.55;4.50;;;14.10;99.90;;;;;;6240096;28;19967;-59
2022/06/01 16:17:53;;;;;;;6.35;3.83;;;14.20;99.90;;;;;;6240262;28;20052;-59
2022/06/01 16:20:55;;;;;;;5.03;4.53;;;14.20;99.90;;;;;;6244748;28;20417;-59
2022/06/01 16:23:57;;;;;;;5.30;4.72;;;14.10;99.90;;;;;;6240453;28;20045;-59
2022/06/01 16:27:02;;;;;;;5.00;4.50;;;14.00;99.90;;;;;;6243497;28;20046;-59
2022/06/01 16:30:06;;;;;;;5.90;4.47;;;13.90;99.90;;;;;;6243554;28;20520;-59
2022/06/01 16:33:13;;;;;;;5.82;5.13;;;13.90;99.90;;;;;;6255061;28;20232;-60
2022/06/01 16:36:28;;;;;;;5.78;4.80;;;13.80;99.90;;;;;;6243999;28;20050;-60
2022/06/01 16:39:30;;;;;;;8.68;5.20;;;13.70;99.90;;;;;;6243789;28;20041;-59
2022/06/01 16:42:34;;;;;;;5.88;5.28;;;13.70;99.90;;;;;;6245562;28;20048;-60
2022/06/01 16:45:38;;;;;;;6.30;4.82;;;13.70;99.90;;;;;;6243513;28;20405;-60
2022/06/01 16:48:41;;;;;;;6.45;5.85;;;13.60;99.90;;;;;;6238173;28;20052;-60